Time;durP1;ratioP1;P1;durP2;ratioP2;P2;SDS_P1;SDS_P2;PMS_P1;PMS_P2;Temp;Humidity;BMP_temperature;BMP_pressure;BME280_temperature;BME280_humidity;BME280_pressure;Samples;Min_cycle;Max_cycle;Signal;HPM_P1;HPM_P2
2022/01/11 00:01:08;;;;;;;2.22;1.80;;;;;;;3.08;71.39;94308.25;5075547;28;20181;-66
2022/01/11 00:03:37;;;;;;;2.40;2.20;;;;;;;3.10;71.74;94304.06;5075800;28;20190;-66
2022/01/11 00:06:17;;;;;;;2.85;2.10;;;;;;;3.07;71.46;94303.91;5075695;28;20213;-66
2022/01/11 00:08:45;;;;;;;3.17;2.30;;;;;;;3.08;72.31;94306.31;5075378;28;20212;-66
2022/01/11 00:11:14;;;;;;;2.28;1.98;;;;;;;3.05;71.31;94311.59;5075530;28;20199;-66
2022/01/11 00:13:41;;;;;;;5.40;3.60;;;;;;;3.02;71.10;94307.63;5075951;28;20208;-66
2022/01/11 00:16:10;;;;;;;3.40;2.88;;;;;;;2.97;71.01;94317.88;5074570;28;20203;-66
2022/01/11 00:18:37;;;;;;;2.40;2.10;;;;;;;2.93;71.67;94322.38;5075704;28;20531;-66
2022/01/11 00:21:04;;;;;;;2.72;2.53;;;;;;;2.92;71.74;94324.31;5075185;28;20187;-66
2022/01/11 00:26:17;;;;;;;2.50;2.30;;;;;;;2.81;72.24;94325.75;5074278;28;20237;-66
2022/01/11 00:28:44;;;;;;;2.60;2.40;;;;;;;2.83;72.47;94328.94;5075318;28;20205;-65
2022/01/11 00:31:10;;;;;;;2.80;2.60;;;;;;;2.80;72.49;94321.44;5075281;28;20189;-65
2022/01/11 00:33:41;;;;;;;2.67;2.47;;;;;;;2.84;72.49;94320.47;5074164;28;20201;-65
2022/01/11 00:36:10;;;;;;;3.13;2.83;;;;;;;2.86;72.18;94325.59;5074881;28;20209;-65
2022/01/11 00:38:39;;;;;;;2.17;1.98;;;;;;;2.90;71.58;94331.97;5075342;28;20488;-66
2022/01/11 00:41:07;;;;;;;2.30;2.05;;;;;;;2.94;71.32;94329.41;5075290;28;20200;-66
2022/01/11 00:43:37;;;;;;;2.05;1.85;;;;;;;2.96;71.16;94340.81;5075228;28;20181;-66
2022/01/11 00:46:05;;;;;;;2.03;1.80;;;;;;;3.02;70.70;94342.25;5075369;28;20189;-66
2022/01/11 00:48:32;;;;;;;1.70;1.60;;;;;;;3.02;70.46;94342.25;5074292;28;20229;-66
2022/01/11 00:51:00;;;;;;;1.98;1.75;;;;;;;3.05;69.84;94352.47;5074144;28;20197;-66
2022/01/11 00:53:27;;;;;;;1.90;1.80;;;;;;;3.01;69.79;94348.78;5075576;28;20185;-66
2022/01/11 00:55:54;;;;;;;1.80;1.70;;;;;;;3.01;69.50;94355.03;5074130;28;20210;-66
2022/01/11 00:58:21;;;;;;;2.28;2.08;;;;;;;3.04;69.19;94353.59;5074124;28;20207;-66
2022/01/11 01:00:49;;;;;;;2.10;1.90;;;;;;;3.02;68.95;94358.59;5075214;28;20189;-66
2022/01/11 01:03:17;;;;;;;1.48;1.38;;;;;;;3.01;68.73;94376.03;5075097;28;20185;-66
2022/01/11 01:05:44;;;;;;;1.40;1.30;;;;;;;3.01;68.57;94376.84;5075211;28;20268;-66
2022/01/11 01:08:11;;;;;;;1.30;1.20;;;;;;;2.96;68.43;94368.03;5075061;28;20204;-66
2022/01/11 01:10:40;;;;;;;1.20;1.10;;;;;;;2.95;68.50;94367.25;5075039;28;20195;-66
2022/01/11 01:13:09;;;;;;;1.45;1.35;;;;;;;2.89;67.91;94377.50;5074801;28;20228;-66
2022/01/11 01:15:37;;;;;;;1.30;1.20;;;;;;;2.83;68.20;94380.69;5074005;28;20193;-66
2022/01/11 01:18:06;;;;;;;1.42;1.33;;;;;;;2.83;68.17;94384.25;5073954;28;20189;-66
2022/01/11 01:20:34;;;;;;;1.20;1.10;;;;;;;2.79;68.46;94390.63;5074334;28;20229;-66
2022/01/11 01:23:03;;;;;;;1.20;1.10;;;;;;;2.83;68.21;94388.84;5074007;28;20211;-66
2022/01/11 01:25:29;;;;;;;1.00;1.00;;;;;;;2.81;68.07;94391.13;5074911;28;20193;-66
2022/01/11 01:27:56;;;;;;;1.00;1.00;;;;;;;2.76;67.65;94391.25;5073256;28;20565;-66
2022/01/11 01:30:23;;;;;;;1.60;1.50;;;;;;;2.72;68.41;94396.53;5074939;28;20197;-66
2022/01/11 01:32:51;;;;;;;1.45;1.10;;;;;;;2.65;67.93;94396.22;5074717;28;20193;-66
2022/01/11 01:35:21;;;;;;;1.58;1.48;;;;;;;2.61;68.73;94401.53;5073933;28;20201;-66
2022/01/11 01:37:48;;;;;;;1.30;1.20;;;;;;;2.35;69.57;94390.56;5075057;28;20201;-66
2022/01/11 01:40:17;;;;;;;1.50;1.40;;;;;;;2.35;69.44;94395.22;5078542;28;20275;-66
2022/01/11 01:42:44;;;;;;;1.30;1.20;;;;;;;2.50;69.91;94402.13;5078522;28;20185;-66
2022/01/11 01:45:12;;;;;;;1.75;1.65;;;;;;;2.61;69.70;94390.63;5077428;28;20201;-66
2022/01/11 01:47:39;;;;;;;1.33;1.23;;;;;;;2.69;69.05;94390.94;5077354;28;20229;-66
2022/01/11 01:50:08;;;;;;;2.10;1.90;;;;;;;2.73;68.99;94389.19;5078386;28;20182;-66
2022/01/11 01:52:36;;;;;;;2.67;2.38;;;;;;;2.72;69.25;94388.38;5078500;28;20185;-66
2022/01/11 01:55:05;;;;;;;1.73;1.63;;;;;;;2.74;68.81;94393.53;5077277;28;20197;-66
2022/01/11 01:57:33;;;;;;;1.60;1.50;;;;;;;2.71;68.84;94385.97;5077449;28;20201;-66
2022/01/11 02:00:03;;;;;;;1.73;1.60;;;;;;;2.72;69.12;94395.75;5077867;28;20185;-66
2022/01/11 02:02:30;;;;;;;1.60;1.50;;;;;;;2.76;68.63;94400.25;5078161;28;20196;-66
2022/01/11 02:04:57;;;;;;;1.52;1.42;;;;;;;2.77;68.76;94395.59;5077989;28;20186;-66
2022/01/11 02:07:26;;;;;;;1.88;1.70;;;;;;;2.81;68.26;94404.75;5077331;28;20614;-66
2022/01/11 02:09:55;;;;;;;1.70;1.60;;;;;;;2.77;68.21;94406.50;5078252;28;20181;-65
2022/01/11 02:12:24;;;;;;;1.48;1.38;;;;;;;2.75;68.29;94411.44;5077422;28;20254;-66
2022/01/11 02:14:51;;;;;;;1.10;1.10;;;;;;;2.83;67.86;94411.47;5077168;28;20196;-66
2022/01/11 02:17:18;;;;;;;1.30;1.20;;;;;;;2.81;67.39;94412.91;5076940;28;20201;-67
2022/01/11 02:19:45;;;;;;;1.70;1.60;;;;;;;2.85;67.54;94419.31;5076759;28;20212;-66
2022/01/11 02:22:13;;;;;;;1.42;1.33;;;;;;;2.83;67.38;94418.81;5077074;28;20197;-66
2022/01/11 02:24:40;;;;;;;1.00;1.00;;;;;;;2.76;67.00;94419.31;5076765;28;20209;-66
2022/01/11 02:27:07;;;;;;;1.30;1.20;;;;;;;2.77;67.28;94418.19;5076476;28;20695;-66
2022/01/11 02:29:34;;;;;;;1.75;1.60;;;;;;;2.80;67.18;94417.56;5076649;28;20227;-66
2022/01/11 02:32:01;;;;;;;1.60;1.50;;;;;;;2.80;67.35;94423.00;5076960;28;20204;-66
2022/01/11 02:34:28;;;;;;;1.90;1.70;;;;;;;2.80;67.44;94430.38;5077595;28;20177;-66
2022/01/11 02:36:54;;;;;;;1.55;1.45;;;;;;;2.76;67.95;94424.78;5077741;28;20189;-66
2022/01/11 02:39:23;;;;;;;1.40;1.30;;;;;;;2.75;67.52;94425.06;5076798;28;20197;-66
2022/01/11 02:41:50;;;;;;;1.35;1.25;;;;;;;2.79;67.67;94432.28;5077425;28;20215;-67
2022/01/11 02:44:17;;;;;;;1.23;1.13;;;;;;;2.78;67.34;94432.59;5077447;28;20203;-66
2022/01/11 02:46:44;;;;;;;1.50;1.40;;;;;;;2.74;67.60;94431.66;5077436;28;20196;-66
2022/01/11 02:49:11;;;;;;;1.90;1.80;;;;;;;2.53;67.62;94439.63;5076531;28;20217;-66
2022/01/11 02:51:38;;;;;;;2.65;2.45;;;;;;;2.58;67.76;94434.84;5077258;28;20192;-66
2022/01/11 02:54:05;;;;;;;1.83;1.73;;;;;;;2.64;67.68;94441.72;5076312;28;20272;-67
2022/01/11 02:56:33;;;;;;;1.30;1.20;;;;;;;2.61;67.01;94449.72;5076107;28;20638;-65
2022/01/11 02:59:00;;;;;;;1.60;1.50;;;;;;;2.59;67.42;94446.53;5077214;28;20511;-65
2022/01/11 03:01:27;;;;;;;1.70;1.60;;;;;;;2.55;67.19;94440.91;5076906;28;20542;-65
2022/01/11 03:03:54;;;;;;;1.95;1.83;;;;;;;2.49;67.67;94444.88;5077372;28;20539;-65
2022/01/11 03:06:21;;;;;;;2.10;2.00;;;;;;;2.56;67.84;94450.66;5076907;28;20185;-65
2022/01/11 03:08:48;;;;;;;2.78;2.58;;;;;;;2.62;68.09;94451.34;5076520;28;20208;-65
2022/01/11 03:11:17;;;;;;;2.28;2.08;;;;;;;2.59;68.30;94460.13;5076803;28;20211;-65
2022/01/11 03:13:45;;;;;;;2.38;2.17;;;;;;;2.58;67.62;94458.53;5076748;28;20189;-65
2022/01/11 03:16:13;;;;;;;1.60;1.50;;;;;;;2.54;67.83;94463.00;5076554;28;20181;-65
2022/01/11 03:18:40;;;;;;;1.88;1.50;;;;;;;2.54;67.80;94458.38;5076693;28;20181;-66
2022/01/11 03:21:06;;;;;;;2.10;1.90;;;;;;;2.52;67.95;94459.78;5076569;28;20181;-66
2022/01/11 03:23:33;;;;;;;1.80;1.70;;;;;;;2.46;68.28;94461.84;5075750;28;20197;-66
2022/01/11 03:26:02;;;;;;;1.90;1.80;;;;;;;2.45;68.62;94462.97;5075888;28;20601;-66
2022/01/11 03:28:29;;;;;;;1.75;1.65;;;;;;;2.45;68.45;94465.69;5076102;28;20208;-66
2022/01/11 03:30:58;;;;;;;2.40;2.20;;;;;;;2.41;68.86;94462.81;5076367;28;20195;-66
2022/01/11 03:33:25;;;;;;;2.42;2.22;;;;;;;2.40;68.58;94460.41;5075994;28;20192;-66
2022/01/11 03:35:52;;;;;;;3.20;2.35;;;;;;;2.36;69.05;94468.41;5075415;28;20207;-66
2022/01/11 03:38:19;;;;;;;2.45;2.25;;;;;;;2.38;69.24;94474.31;5075136;28;20199;-66
2022/01/11 03:40:46;;;;;;;2.90;2.70;;;;;;;2.38;68.98;94465.34;5076235;28;20186;-66
2022/01/11 03:43:14;;;;;;;3.10;2.75;;;;;;;2.35;68.60;94474.16;5075251;28;20200;-66
2022/01/11 03:45:41;;;;;;;2.88;2.60;;;;;;;2.41;68.24;94479.13;5075888;28;20538;-66
2022/01/11 03:48:09;;;;;;;2.78;2.50;;;;;;;2.38;68.73;94471.59;5076113;28;20201;-66
2022/01/11 03:50:37;;;;;;;3.60;3.30;;;;;;;2.40;68.56;94471.31;5075696;28;20204;-66
2022/01/11 03:53:10;;;;;;;3.50;3.17;;;;;;;2.43;68.47;94473.38;5075907;28;20189;-66
2022/01/11 03:55:51;;;;;;;3.05;2.65;;;;;;;2.49;67.80;94482.19;5076287;28;20196;-66
2022/01/11 03:58:21;;;;;;;4.40;4.05;;;;;;;2.53;67.76;94491.34;5075984;28;20326;-66
2022/01/11 04:00:49;;;;;;;3.67;3.38;;;;;;;2.56;67.16;94480.63;5075058;28;20208;-66
2022/01/11 04:03:17;;;;;;;3.40;3.10;;;;;;;2.56;67.16;94485.25;5075984;28;20185;-66
2022/01/11 04:05:45;;;;;;;4.10;3.70;;;;;;;2.48;67.48;94499.66;5074816;28;20185;-66
2022/01/11 04:08:13;;;;;;;6.60;4.80;;;;;;;2.44;67.91;94498.69;5074903;28;20197;-66
2022/01/11 04:10:40;;;;;;;7.63;4.30;;;;;;;2.45;68.53;94498.38;5075489;28;20562;-65
2022/01/11 04:13:10;;;;;;;5.80;4.47;;;;;;;2.50;69.13;94502.84;5074751;28;20204;-65
2022/01/11 04:15:58;;;;;;;3.60;2.92;;;;;;;2.52;68.65;94506.06;5075332;28;20188;-65
2022/01/11 04:18:46;;;;;;;2.70;2.45;;;;;;;2.57;69.39;94504.00;5075337;28;20220;-66
2022/01/11 04:21:33;;;;;;;2.30;2.10;;;;;;;2.61;69.92;94512.34;5075279;28;20197;-66
2022/01/11 04:24:19;;;;;;;3.20;2.90;;;;;;;2.57;68.97;94514.09;5075428;28;20201;-65
2022/01/11 04:27:07;;;;;;;3.95;3.10;;;;;;;2.55;68.66;94514.41;5074974;28;20239;-65
2022/01/11 04:29:53;;;;;;;3.90;3.60;;;;;;;2.54;69.25;94522.88;5075065;28;20205;-65
2022/01/11 04:32:43;;;;;;;4.13;3.63;;;;;;;2.55;69.21;94529.94;5075085;28;20212;-65
2022/01/11 04:35:31;;;;;;;7.18;5.00;;;;;;;2.47;68.39;94533.41;5075664;28;20207;-65
2022/01/11 04:38:19;;;;;;;6.05;5.00;;;;;;;2.42;68.48;94540.63;5075401;28;20193;-66
2022/01/11 04:41:06;;;;;;;5.18;4.68;;;;;;;2.45;68.62;94535.66;5075018;28;20227;-66
2022/01/11 04:43:53;;;;;;;4.53;4.13;;;;;;;2.51;67.83;94531.69;5075007;28;20647;-66
2022/01/11 04:46:40;;;;;;;5.15;4.75;;;;;;;2.52;68.20;94536.81;5074971;28;20201;-66
2022/01/11 04:49:26;;;;;;;5.15;4.75;;;;;;;2.50;67.26;94547.22;5074957;28;20213;-66
2022/01/11 04:52:15;;;;;;;5.78;5.38;;;;;;;2.48;67.51;94548.66;5074939;28;20201;-66
2022/01/11 04:55:02;;;;;;;5.75;5.25;;;;;;;2.45;67.69;94557.44;5074905;28;20192;-65
2022/01/11 04:57:49;;;;;;;5.43;4.80;;;;;;;2.47;67.34;94558.75;5075092;28;20178;-65
2022/01/11 05:00:36;;;;;;;5.45;4.95;;;;;;;2.45;67.42;94560.97;5075111;28;20201;-65
2022/01/11 05:03:22;;;;;;;3.85;3.05;;;;;;;2.47;66.57;94557.91;5074900;28;20211;-65
2022/01/11 05:06:09;;;;;;;2.80;2.53;;;;;;;2.42;65.37;94564.31;5075169;28;20196;-65
2022/01/11 05:08:57;;;;;;;3.03;2.72;;;;;;;2.50;65.19;94563.53;5075016;28;20220;-65
2022/01/11 05:11:44;;;;;;;2.72;2.53;;;;;;;2.52;65.08;94574.13;5074739;28;20637;-65
2022/01/11 05:14:30;;;;;;;2.88;2.38;;;;;;;2.43;64.76;94568.63;5079211;28;20740;-66
2022/01/11 05:16:56;;;;;;;1.88;1.73;;;;;;;2.31;64.18;94568.44;5078414;28;20189;-66
2022/01/11 05:19:23;;;;;;;2.58;2.25;;;;;;;2.29;63.89;94573.41;5078171;28;20193;-65
2022/01/11 05:21:50;;;;;;;2.65;2.38;;;;;;;2.24;63.88;94576.22;5078438;28;20200;-65
2022/01/11 05:24:18;;;;;;;2.50;2.30;;;;;;;2.28;64.05;94577.22;5078259;28;20505;-67
2022/01/11 05:26:45;;;;;;;2.25;2.08;;;;;;;2.24;63.57;94585.19;5077255;28;20244;-64
2022/01/11 05:29:12;;;;;;;2.03;1.85;;;;;;;2.27;63.26;94583.78;5078719;28;20205;-65
2022/01/11 05:31:39;;;;;;;2.25;2.05;;;;;;;2.34;65.14;94595.81;5077726;28;20204;-64
2022/01/11 05:34:05;;;;;;;4.70;4.30;;;;;;;2.27;63.46;94597.38;5078372;28;20543;-66
2022/01/11 05:36:32;;;;;;;2.00;1.90;;;;;;;2.15;63.11;94593.31;5078653;28;20579;-65
2022/01/11 05:38:59;;;;;;;2.20;2.10;;;;;;;2.21;63.20;94585.81;5078757;28;20182;-66
2022/01/11 05:41:27;;;;;;;1.88;1.77;;;;;;;2.31;62.92;94593.72;5078731;28;20189;-65
2022/01/11 05:43:54;;;;;;;1.20;1.20;;;;;;;2.22;62.75;94597.53;5078846;28;20264;-66
2022/01/11 05:46:21;;;;;;;1.77;1.67;;;;;;;2.26;63.21;94591.16;5078515;28;20208;-65
2022/01/11 05:48:48;;;;;;;2.40;2.20;;;;;;;2.28;63.28;94599.78;5079048;28;20203;-66
2022/01/11 05:51:15;;;;;;;2.28;2.17;;;;;;;2.33;62.63;94602.38;5078823;28;20243;-66
2022/01/11 05:53:42;;;;;;;2.03;1.83;;;;;;;2.30;62.85;94607.66;5078064;28;20184;-65
2022/01/11 05:56:09;;;;;;;1.85;1.75;;;;;;;2.30;63.52;94605.72;5077365;28;20272;-65
2022/01/11 05:58:37;;;;;;;2.45;2.25;;;;;;;2.30;63.49;94603.00;5077325;28;20205;-65
2022/01/11 06:01:04;;;;;;;7.88;6.70;;;;;;;2.33;62.65;94612.47;5077361;28;20219;-65
2022/01/11 06:03:31;;;;;;;7.47;6.70;;;;;;;2.37;62.87;94616.19;5078086;28;20200;-65
2022/01/11 06:05:58;;;;;;;6.30;5.70;;;;;;;2.41;62.87;94617.94;5076777;28;20621;-65
2022/01/11 06:08:25;;;;;;;3.72;3.42;;;;;;;2.37;62.60;94627.06;5078149;28;20290;-67
2022/01/11 06:10:52;;;;;;;3.90;3.60;;;;;;;2.39;62.59;94632.97;5078758;28;20209;-66
2022/01/11 06:13:19;;;;;;;3.08;2.78;;;;;;;2.47;61.88;94642.31;5077824;28;20192;-66
2022/01/11 06:15:47;;;;;;;3.35;3.15;;;;;;;2.44;62.19;94637.50;5078500;28;20189;-66
2022/01/11 06:18:14;;;;;;;4.70;4.30;;;;;;;2.46;62.00;94635.25;5076930;28;20201;-65
2022/01/11 06:20:41;;;;;;;4.10;3.70;;;;;;;2.39;61.55;94649.31;5078342;28;20180;-65
2022/01/11 06:23:08;;;;;;;3.65;3.35;;;;;;;2.39;61.59;94647.38;5077896;28;20239;-66
2022/01/11 06:25:35;;;;;;;4.20;3.90;;;;;;;2.46;61.40;94646.94;5076373;28;20189;-66
2022/01/11 06:28:02;;;;;;;5.60;5.10;;;;;;;2.52;61.47;94647.63;5076234;28;20319;-66
2022/01/11 06:30:29;;;;;;;7.03;6.43;;;;;;;2.53;61.08;94654.69;5077271;28;20201;-66
2022/01/11 06:32:57;;;;;;;8.60;7.80;;;;;;;2.50;60.75;94666.19;5077235;28;20200;-66
2022/01/11 06:35:25;;;;;;;6.82;6.10;;;;;;;2.51;61.03;94662.38;5077491;28;20192;-66
2022/01/11 06:37:52;;;;;;;7.10;6.50;;;;;;;2.48;61.70;94668.44;5077057;28;20190;-66
2022/01/11 06:40:21;;;;;;;7.05;6.45;;;;;;;2.50;61.58;94658.03;5077127;28;20193;-67
2022/01/11 06:42:50;;;;;;;7.97;7.28;;;;;;;2.50;61.44;94674.34;5078294;28;20185;-66
2022/01/11 06:45:17;;;;;;;4.25;3.95;;;;;;;2.38;60.37;94674.94;5077211;28;20189;-66
2022/01/11 06:47:44;;;;;;;3.10;2.90;;;;;;;2.17;60.65;94674.63;5076443;28;20229;-66
2022/01/11 06:50:13;;;;;;;4.13;3.78;;;;;;;2.09;61.03;94675.38;5076779;28;20201;-66
2022/01/11 06:52:40;;;;;;;2.78;2.58;;;;;;;2.06;61.38;94679.50;5076478;28;20189;-66
2022/01/11 06:55:09;;;;;;;4.68;4.28;;;;;;;1.96;61.26;94673.50;5077121;28;20192;-66
2022/01/11 06:57:35;;;;;;;6.32;5.70;;;;;;;2.05;61.30;94679.81;5076851;28;20545;-66
2022/01/11 07:00:05;;;;;;;4.30;3.90;;;;;;;1.86;60.86;94680.81;5076623;28;20623;-65
2022/01/11 07:02:31;;;;;;;5.65;5.15;;;;;;;1.99;61.77;94687.28;5075880;28;20193;-66
2022/01/11 07:04:58;;;;;;;5.35;4.85;;;;;;;1.98;61.75;94690.31;5076849;28;20185;-66
2022/01/11 07:07:26;;;;;;;5.30;4.85;;;;;;;2.08;61.86;94692.81;5075726;28;20205;-65
2022/01/11 07:09:53;;;;;;;4.50;4.10;;;;;;;2.11;61.55;94690.28;5076293;28;20213;-65
2022/01/11 07:12:20;;;;;;;4.65;4.25;;;;;;;2.04;61.20;94703.50;5076047;28;20208;-65
2022/01/11 07:14:47;;;;;;;4.65;4.25;;;;;;;1.94;61.26;94698.31;5075533;28;20205;-65
2022/01/11 07:17:15;;;;;;;4.65;4.07;;;;;;;2.05;61.36;94704.31;5076725;28;20196;-65
2022/01/11 07:19:42;;;;;;;3.70;3.40;;;;;;;2.00;61.21;94702.53;5076786;28;20185;-65
2022/01/11 07:22:09;;;;;;;4.82;4.13;;;;;;;1.81;61.38;94705.38;5075570;28;20684;-65
2022/01/11 07:24:37;;;;;;;4.10;3.70;;;;;;;1.75;62.10;94708.53;5076221;28;20192;-65
2022/01/11 07:27:04;;;;;;;2.42;2.22;;;;;;;1.90;61.83;94713.63;5076441;28;20237;-66
2022/01/11 07:29:31;;;;;;;2.55;2.35;;;;;;;1.78;61.51;94718.78;5076097;28;20204;-66
2022/01/11 07:31:58;;;;;;;2.80;2.60;;;;;;;1.76;61.96;94729.16;5075683;28;20193;-66
2022/01/11 07:34:25;;;;;;;3.00;2.80;;;;;;;1.54;62.92;94738.88;5076603;28;20283;-66
2022/01/11 07:36:52;;;;;;;2.65;2.45;;;;;;;1.54;62.71;94732.63;5076062;28;20264;-66
2022/01/11 07:39:19;;;;;;;2.70;2.50;;;;;;;1.64;62.91;94740.56;5075326;28;20197;-67
2022/01/11 07:41:50;;;;;;;3.85;3.55;;;;;;;1.64;62.58;94737.84;5076556;28;20189;-66
2022/01/11 07:44:17;;;;;;;4.40;4.10;;;;;;;1.73;62.54;94740.66;5077050;28;20211;-66
2022/01/11 07:46:44;;;;;;;3.80;3.50;;;;;;;1.71;62.20;94743.69;5075734;28;20197;-67
2022/01/11 07:49:11;;;;;;;2.70;2.50;;;;;;;1.61;62.07;94750.13;5076828;28;20196;-66
2022/01/11 07:51:38;;;;;;;3.58;3.28;;;;;;;1.41;62.85;94742.38;5075439;28;20282;-66
2022/01/11 07:54:06;;;;;;;4.65;4.25;;;;;;;1.33;63.40;94752.06;5075458;28;20216;-67
2022/01/11 07:56:32;;;;;;;4.10;3.80;;;;;;;1.32;63.22;94753.19;5075501;28;20197;-66
2022/01/11 07:59:01;;;;;;;3.40;3.13;;;;;;;1.31;63.47;94753.50;5075226;28;20207;-68
2022/01/11 08:01:27;;;;;;;3.80;3.50;;;;;;;1.40;63.09;94760.63;5075957;28;20192;-67
2022/01/11 08:03:54;;;;;;;4.20;3.90;;;;;;;1.41;63.82;94759.50;5075374;28;20189;-66
2022/01/11 08:06:21;;;;;;;5.32;4.82;;;;;;;1.37;64.03;94774.00;5075716;28;20184;-66
2022/01/11 08:08:48;;;;;;;2.30;2.20;;;;;;;1.20;63.97;94771.91;5076265;28;20192;-67
2022/01/11 08:11:15;;;;;;;3.50;3.20;;;;;;;1.25;64.18;94779.94;5074880;28;20217;-66
2022/01/11 08:13:42;;;;;;;4.82;4.45;;;;;;;1.38;63.94;94768.28;5075791;28;20197;-66
2022/01/11 08:16:10;;;;;;;3.72;3.50;;;;;;;1.52;63.30;94770.97;5075740;28;20216;-66
2022/01/11 08:18:37;;;;;;;5.85;5.35;;;;;;;1.48;63.35;94777.31;5075599;28;20185;-66
2022/01/11 08:21:04;;;;;;;5.88;5.28;;;;;;;1.42;63.37;94785.59;5074358;28;20610;-67
2022/01/11 08:23:31;;;;;;;4.40;4.00;;;;;;;1.57;63.22;94787.19;5075437;28;20185;-66
2022/01/11 08:25:58;;;;;;;4.00;3.70;;;;;;;1.35;63.04;94784.38;5074658;28;20200;-66
2022/01/11 08:28:25;;;;;;;5.95;5.35;;;;;;;1.20;63.27;94797.16;5074858;28;20196;-66
2022/01/11 08:30:52;;;;;;;7.93;7.43;;;;;;;1.09;64.01;94794.91;5074355;28;20292;-66
2022/01/11 08:33:20;;;;;;;5.10;4.70;;;;;;;0.88;64.39;94798.00;5074676;28;20577;-65
2022/01/11 08:35:47;;;;;;;7.85;7.30;;;;;;;0.79;64.82;94807.91;5075967;28;20199;-64
2022/01/11 08:38:14;;;;;;;4.10;3.80;;;;;;;0.67;65.15;94807.59;5074685;28;20197;-65
2022/01/11 08:40:41;;;;;;;5.72;5.22;;;;;;;0.74;65.79;94801.78;5075285;28;20515;-65
2022/01/11 08:43:08;;;;;;;4.30;3.90;;;;;;;0.88;65.55;94802.63;5075278;28;20200;-66
2022/01/11 08:45:36;;;;;;;4.22;3.90;;;;;;;0.86;65.37;94802.09;5074064;28;20201;-65
2022/01/11 08:48:03;;;;;;;4.75;4.35;;;;;;;0.94;65.96;94817.72;5073786;28;20237;-66
2022/01/11 08:50:32;;;;;;;4.80;4.40;;;;;;;0.93;65.46;94818.81;5074133;28;20223;-65
2022/01/11 08:52:59;;;;;;;6.13;5.60;;;;;;;1.03;65.45;94831.44;5075244;28;20200;-65
2022/01/11 08:55:26;;;;;;;5.13;4.72;;;;;;;0.91;64.86;94827.28;5074092;28;20197;-65
2022/01/11 08:57:53;;;;;;;4.30;4.00;;;;;;;0.88;65.00;94838.72;5075179;28;20208;-65
2022/01/11 09:00:20;;;;;;;3.47;3.28;;;;;;;0.89;64.67;94847.69;5075613;28;20196;-65
2022/01/11 09:02:47;;;;;;;3.10;2.80;;;;;;;0.93;64.64;94844.06;5075535;28;20525;-65
2022/01/11 09:05:14;;;;;;;3.40;3.10;;;;;;;0.79;64.67;94839.69;5074480;28;20200;-68
2022/01/11 09:07:43;;;;;;;3.70;3.40;;;;;;;0.87;64.86;94849.88;5074302;28;20196;-65
2022/01/11 09:10:10;;;;;;;2.88;2.67;;;;;;;0.84;64.73;94847.78;5074320;28;20548;-65
2022/01/11 09:12:37;;;;;;;4.18;3.85;;;;;;;0.89;64.55;94845.75;5074763;28;20200;-65
2022/01/11 09:15:06;;;;;;;4.40;4.00;;;;;;;0.81;65.50;94845.66;5075030;28;20233;-65
2022/01/11 09:17:32;;;;;;;4.97;4.57;;;;;;;0.88;64.88;94846.06;5074098;28;20551;-66
2022/01/11 09:20:00;;;;;;;4.00;3.70;;;;;;;0.85;64.68;94842.03;5074153;28;20258;-65
2022/01/11 09:22:27;;;;;;;5.00;4.70;;;;;;;0.97;65.04;94847.00;5074556;28;20621;-65
2022/01/11 09:24:56;;;;;;;7.25;6.57;;;;;;;1.10;64.52;94843.50;5074012;28;20201;-65
2022/01/11 09:27:22;;;;;;;7.57;6.85;;;;;;;1.09;64.71;94843.78;5074304;28;20237;-65
2022/01/11 09:29:49;;;;;;;10.32;9.43;;;;;;;0.98;64.94;94855.94;5073824;28;20207;-65
2022/01/11 09:32:16;;;;;;;10.70;9.75;;;;;;;0.99;65.30;94855.66;5074731;28;20177;-65
2022/01/11 09:34:44;;;;;;;5.95;5.45;;;;;;;0.91;64.86;94854.44;5073460;28;20197;-65
2022/01/11 09:37:11;;;;;;;5.97;5.47;;;;;;;0.96;65.31;94854.34;5074527;28;20207;-65
2022/01/11 09:39:39;;;;;;;6.80;6.20;;;;;;;0.92;65.10;94852.50;5074753;28;20181;-65
2022/01/11 09:42:08;;;;;;;7.22;6.30;;;;;;;0.96;65.34;94848.09;5074459;28;20182;-65
2022/01/11 09:44:38;;;;;;;4.95;4.57;;;;;;;0.94;65.48;94848.41;5074622;28;20181;-65
2022/01/11 09:47:06;;;;;;;5.53;5.13;;;;;;;1.01;65.32;94849.91;5073823;28;20291;-64
2022/01/11 09:49:33;;;;;;;8.13;7.32;;;;;;;1.17;65.23;94843.94;5073620;28;20216;-64
2022/01/11 09:52:02;;;;;;;5.13;4.72;;;;;;;1.24;64.51;94848.97;5073760;28;20217;-64
2022/01/11 09:54:28;;;;;;;3.92;3.63;;;;;;;1.16;64.04;94847.75;5073630;28;20208;-65
2022/01/11 09:56:56;;;;;;;3.35;3.15;;;;;;;1.27;63.82;94853.81;5074280;28;20269;-65
2022/01/11 09:59:24;;;;;;;4.22;3.92;;;;;;;1.33;63.61;94859.94;5076347;28;20189;-65
2022/01/11 10:01:51;;;;;;;4.70;4.30;;;;;;;1.24;63.29;94861.75;5077751;28;20254;-65
2022/01/11 10:04:18;;;;;;;6.30;5.63;;;;;;;1.35;63.30;94868.63;5078019;28;20185;-65
2022/01/11 10:06:53;;;;;;;8.63;7.93;;;;;;;1.34;63.71;94867.78;5077251;28;20196;-65
2022/01/11 10:09:22;;;;;;;5.68;5.18;;;;;;;1.30;63.81;94865.97;5077169;28;20200;-65
2022/01/11 10:11:51;;;;;;;5.90;5.40;;;;;;;1.25;63.46;94869.59;5077462;28;20543;-63
2022/01/11 10:14:25;;;;;;;8.75;7.95;;;;;;;1.38;63.45;94873.44;5078161;28;20188;-64
2022/01/11 10:17:05;;;;;;;9.43;8.60;;;;;;;1.53;63.46;94875.91;5078211;28;20209;-65
2022/01/11 10:19:31;;;;;;;6.20;4.95;;;;;;;1.59;62.70;94871.94;5077507;28;20231;-65
2022/01/11 10:21:58;;;;;;;5.82;5.25;;;;;;;1.40;62.50;94866.59;5077531;28;20201;-65
2022/01/11 10:24:41;;;;;;;4.68;4.28;;;;;;;1.45;63.17;94873.84;5079429;28;20178;-68
2022/01/11 10:27:18;;;;;;;4.00;3.70;;;;;;;1.40;62.57;94872.03;5078780;28;20225;-67
2022/01/11 10:29:47;;;;;;;7.15;6.25;;;;;;;1.53;62.92;94870.47;5077945;28;20614;-67
2022/01/11 10:32:21;;;;;;;9.23;8.32;;;;;;;1.60;62.66;94875.50;5077750;28;20216;-66
2022/01/11 10:34:50;;;;;;;8.93;8.13;;;;;;;1.68;62.63;94872.06;5076896;28;20193;-66
2022/01/11 10:37:18;;;;;;;7.20;6.50;;;;;;;1.43;63.01;94876.88;5076679;28;20197;-66
2022/01/11 10:39:45;;;;;;;5.65;5.15;;;;;;;1.28;63.92;94876.34;5077069;28;20200;-66
2022/01/11 10:42:34;;;;;;;4.90;4.50;;;;;;;1.20;63.70;94875.94;5076786;28;20651;-66
2022/01/11 10:45:03;;;;;;;7.90;7.18;;;;;;;1.27;64.28;94877.44;5072776;28;20213;-66
2022/01/11 10:47:33;;;;;;;9.63;8.82;;;;;;;1.40;64.48;94873.94;5077446;28;20204;-66
2022/01/11 10:50:07;;;;;;;9.75;8.88;;;;;;;1.43;63.20;94868.72;5077449;28;20191;-66
2022/01/11 10:52:34;;;;;;;8.57;7.78;;;;;;;1.19;62.95;94879.75;5077320;28;20208;-66
2022/01/11 10:55:03;;;;;;;8.00;7.30;;;;;;;1.15;63.16;94865.13;5077259;28;20191;-66
2022/01/11 10:57:32;;;;;;;5.70;5.20;;;;;;;0.91;62.79;94876.16;5077218;28;20185;-66
2022/01/11 11:00:15;;;;;;;6.18;5.68;;;;;;;0.83;62.73;94871.38;5076232;28;20216;-66
2022/01/11 11:02:43;;;;;;;7.18;6.57;;;;;;;0.87;63.07;94874.31;5076661;28;20205;-66
2022/01/11 11:05:15;;;;;;;4.63;4.22;;;;;;;0.94;62.88;94866.59;5076001;28;20204;-65
2022/01/11 11:07:42;;;;;;;3.47;3.28;;;;;;;0.89;62.44;94859.34;5077047;28;20191;-65
2022/01/11 11:10:09;;;;;;;3.03;2.83;;;;;;;0.63;63.06;94858.94;5076621;28;20181;-65
2022/01/11 11:12:36;;;;;;;2.90;2.70;;;;;;;0.62;62.84;94854.63;5076795;28;20254;-65
2022/01/11 11:15:05;;;;;;;3.03;2.83;;;;;;;0.52;63.53;94854.78;5076744;28;20192;-65
2022/01/11 11:17:35;;;;;;;2.67;2.47;;;;;;;0.59;63.30;94852.50;5076020;28;20209;-65
2022/01/11 11:20:04;;;;;;;3.40;3.10;;;;;;;0.71;62.77;94855.56;5076638;28;20199;-66
2022/01/11 11:22:32;;;;;;;3.30;3.10;;;;;;;0.77;63.01;94861.72;5075705;28;20300;-65
2022/01/11 11:24:59;;;;;;;3.50;3.20;;;;;;;0.98;62.12;94862.19;5076624;28;20212;-65
2022/01/11 11:27:28;;;;;;;4.32;4.03;;;;;;;1.17;61.83;94865.66;5073983;28;20236;-65
2022/01/11 11:29:55;;;;;;;3.30;3.00;;;;;;;1.23;61.60;94874.50;5075419;28;20295;-65
2022/01/11 11:32:23;;;;;;;4.05;3.60;;;;;;;1.18;61.48;94871.91;5076039;28;20220;-65
2022/01/11 11:34:52;;;;;;;6.85;6.32;;;;;;;1.26;61.03;94873.91;5076211;28;20181;-68
2022/01/11 11:37:23;;;;;;;6.57;6.05;;;;;;;1.41;61.23;94865.50;5075295;28;20246;-67
2022/01/11 11:39:55;;;;;;;5.57;5.18;;;;;;;1.54;60.91;94874.78;5075707;28;20197;-67
2022/01/11 11:42:22;;;;;;;6.38;5.88;;;;;;;1.59;60.59;94879.31;5076511;28;20185;-67
2022/01/11 11:44:49;;;;;;;7.63;6.95;;;;;;;1.72;60.65;94885.88;5075346;28;20200;-66
2022/01/11 11:47:16;;;;;;;7.88;6.78;;;;;;;1.84;60.13;94892.41;5075915;28;20620;-67
2022/01/11 11:49:45;;;;;;;5.03;4.68;;;;;;;1.85;59.50;94890.50;5075883;28;20197;-67
2022/01/11 11:52:24;;;;;;;5.20;4.80;;;;;;;1.92;59.19;94899.06;5075338;28;20233;-67
2022/01/11 11:54:52;;;;;;;4.43;4.13;;;;;;;1.93;58.48;94893.34;5075370;28;20515;-67